Weather at Butterfly 2 Airfield

Public forecast

Using degrees Celsius for public forecast. Weather courtesy of forecast.io.

Closest aviation weather report (METAR) to Butterfly 2 Airfield

Report is more than 6 hours old.

Closest report is Aviano Air Base, 12.2 nm (22.7 km) NNE.

2024/02/24 18:55 (retrieved 18 hours ago)

LIPA 241855Z 03006KT 9999 SCT050 08/05 Q1010

Closest aviation forecast (TAF) to Butterfly 2 Airfield

Closest forecast is Treviso Antonio Canova Airport, 16.5 nm (30.5 km) SW.

2024/02/25 12:00 (retrieved 1 hour ago)

TAF LIPH 251100Z 2512/2612 VRB05KT 9999 FEW030 SCT060 TEMPO 2600/2606 3000 BR BECMG 2609/2611 03010KT